Flight Track Log - Related Links

Times and Time Zones

All times are in EDT time to prevent confusion due to time zone crossing. See the JBU33 flight status page for this flight to view local times or setup timezone preferences in your user account.

Time Position Orientation Groundspeed Altitude Reporting Facility
EDT Latitude Longitude Course Direction KTS MPH feet Rate Location/Type
Mon 02:01:19 PM 44.3347 -73.0553 196° South 269 310 6,400  Level Boston Center
Mon 02:02:00 PM 44.1567 -73.2663 195° South  Level FlightAware Approximate
Mon 02:02:19 PM 44.2597 -73.0228 163° South 280 322 8,900  Level Boston Center
Mon 02:03:00 PM 44.0787 -73.2955 195° South  Level FlightAware Approximate
Mon 02:03:19 PM 44.1831 -72.9583 149° Southeast 301 346 11,400  Level Boston Center
Mon 02:04:00 PM 44.0003 -73.3222 194° South  Level FlightAware Approximate
Mon 02:04:19 PM 44.1000 -72.8736 144° Southeast 348 400 13,600  Level Boston Center
Mon 02:05:00 PM 43.9217 -73.3483 193° South  Level FlightAware Approximate
Mon 02:05:19 PM 44.0086 -72.7981 149° Southeast 377 434 16,700  Level Boston Center
Mon 02:06:00 PM 43.8441 -73.3792 196° South  Level FlightAware Approximate
Mon 02:06:19 PM 43.9108 -72.7456 159° South 377 434 19,000  Level Boston Center
Mon 02:07:19 PM 43.8172 -72.6906 157° South 394 453 21,000 1,650 Climbing Boston Center
Mon 02:08:19 PM 43.7108 -72.7131 189° South 387 445 22,300 1,000 Climbing Boston Center
Mon 02:09:19 PM 43.6025 -72.7325 187° South 387 445 23,000 700 Climbing Boston Center
Mon 02:10:19 PM 43.4900 -72.7092 171° South 400 460 23,700 1,300 Climbing Boston Center
Mon 02:11:19 PM 43.3756 -72.7028 178° South 412 474 25,600 1,140 Climbing Boston Center
Mon 02:12:20 PM 43.2731 -72.7708 206° Southwest 397 457 26,000 200 Climbing Boston Center
Mon 02:13:19 PM 43.1728 -72.8414 207° Southwest 402 463 26,000  Level Boston Center
Mon 02:14:19 PM 43.0622 -72.9089 204° Southwest 407 468 26,000  Level Boston Center
Mon 02:15:19 PM 42.9619 -72.9764 206° Southwest 407 468 26,000  Level Boston Center
Mon 02:16:19 PM 42.8739 -73.0406 208° Southwest 396 456 26,000  Level Boston Center
Mon 02:17:19 PM 42.7736 -73.1075 206° Southwest 396 456 26,000  Level Boston Center
Mon 02:18:19 PM 42.6753 -73.1744 207° Southwest 396 456 26,000  Level Boston Center
Mon 02:19:19 PM 42.5622 -73.2406 203° Southwest 403 464 26,000  Level Boston Center
Mon 02:20:19 PM 42.4617 -73.3042 205° Southwest 403 464 26,000  Level Boston Center
Mon 02:21:19 PM 42.3589 -73.3842 210° Southwest 408 470 26,000  Level Boston Center
Mon 02:22:19 PM 42.2628 -73.4358 202° Southwest 402 463 26,000  Level Boston Center
Mon 02:23:19 PM 42.1578 -73.5072 207° Southwest 402 463 26,000  Level Boston Center
Mon 02:24:19 PM 42.0572 -73.5753 207° Southwest 408 470 26,000  Level Boston Center
Mon 02:25:19 PM 41.9564 -73.6406 206° Southwest 408 470 26,000  Level Boston Center
Mon 02:28:15 PM 41.6719 -73.8203 205° Southwest 400 460 26,000 -456 Level New York Center
Mon 02:29:16 PM 41.5806 -73.8967 212° Southwest 400 460 24,200 -1,884 Descending New York Center
Mon 02:30:16 PM 41.4931 -73.9700 212° Southwest 395 455 22,200 -2,033 Descending New York Center
Mon 02:31:17 PM 41.3992 -74.0514 213° Southwest 395 455 20,100 -1,109 Descending New York Center
Mon 02:32:15 PM 41.2961 -74.0875 195° South 383 441 20,000 -500 Descending New York Center
Mon 02:33:17 PM 41.1939 -74.1019 186° South 383 441 19,100 -606 Descending New York Center
Mon 02:33:54 PM 41.1167 -74.1000 179° South 368 423 19,000 -62 Descending New York TRACON
Mon 02:34:54 PM 41.0167 -74.1167 187° South 366 421 19,000 -550 Level New York TRACON
Mon 02:35:54 PM 40.9167 -74.1167 180° South 327 376 17,900 -1,300 Descending New York TRACON
Mon 02:36:54 PM 40.8500 -74.0500 143° Southeast 321 369 16,400 -1,300 Descending New York TRACON
Mon 02:37:54 PM 40.7833 -73.9667 137° Southeast 319 367 15,300 -1,450 Descending New York TRACON
Mon 02:38:54 PM 40.7333 -73.8667 123° Southeast 320 368 13,500 -1,200 Descending New York TRACON
Mon 02:39:54 PM 40.7000 -73.7500 111° Southeast 354 407 12,900 -750 Descending New York TRACON
Mon 02:40:54 PM 40.6500 -73.6667 128° Southeast 359 413 12,000 -1,053 Descending New York TRACON
Mon 02:41:48 PM 40.5833 -73.6000 143° Southeast 300 345 10,900 -1,526 Descending New York TRACON
Mon 02:42:48 PM 40.5000 -73.5667 163° South 296 341 9,100 -1,850 Descending New York TRACON
Mon 02:43:48 PM 40.4333 -73.5833 191° South 283 326 7,200 -1,619 Descending New York TRACON
Mon 02:44:54 PM 40.3500 -73.6167 197° South 259 298 5,700 -1,190 Descending New York TRACON
Mon 02:45:54 PM 40.3000 -73.6500 207° Southwest 230 265 4,700 -1,050 Descending New York TRACON
Mon 02:46:54 PM 40.2333 -73.6833 201° Southwest 219 252 3,600 -850 Descending New York TRACON
Mon 02:47:54 PM 40.2333 -73.7500 270° West 219 252 3,000 -300 Descending New York TRACON
Mon 02:48:54 PM 40.2667 -73.8167 303° West 219 252 3,000  Level New York TRACON
Mon 02:49:54 PM 40.3167 -73.8667 323° Northwest 220 253 3,000  Level New York TRACON
Mon 02:50:54 PM 40.3500 -73.9167 311° West 186 214 3,000  Level New York TRACON
Mon 02:51:54 PM 40.3833 -73.9667 311° West 191 220 3,000  Level New York TRACON
Mon 02:52:48 PM 40.4333 -73.9667 360° North 195 224 3,000  Level New York TRACON
Mon 02:53:48 PM 40.4833 -73.9833 346° North 176 203 3,000  Level New York TRACON
Mon 02:54:48 PM 40.5167 -73.9667 21° North 176 203 3,000  Level New York TRACON
Mon 02:55:48 PM 40.5667 -73.9333 27° Northeast 175 201 3,000  Level New York TRACON

Login

Don't have an account? Register now (free) for customized features, flight alerts, and more!